sensor_id;sensor_type;location;lat;lon;timestamp;P1;durP1;ratioP1;P2;durP2;ratioP2
6434;SDS011;3250;42.694;23.278;2023-10-08T00:00:31;11.77;;;7.20;;
6434;SDS011;3250;42.694;23.278;2023-10-08T00:03:14;16.87;;;7.50;;
6434;SDS011;3250;42.694;23.278;2023-10-08T00:05:42;13.47;;;6.23;;
6434;SDS011;3250;42.694;23.278;2023-10-08T00:08:08;16.10;;;6.93;;
6434;SDS011;3250;42.694;23.278;2023-10-08T00:10:40;12.77;;;7.00;;
6434;SDS011;3250;42.694;23.278;2023-10-08T00:13:15;13.53;;;6.53;;
6434;SDS011;3250;42.694;23.278;2023-10-08T00:15:41;16.43;;;6.67;;
6434;SDS011;3250;42.694;23.278;2023-10-08T00:18:21;13.27;;;6.73;;
6434;SDS011;3250;42.694;23.278;2023-10-08T00:20:48;16.13;;;7.10;;
6434;SDS011;3250;42.694;23.278;2023-10-08T00:23:32;11.63;;;6.10;;
6434;SDS011;3250;42.694;23.278;2023-10-08T00:26:00;12.93;;;6.20;;
6434;SDS011;3250;42.694;23.278;2023-10-08T00:28:31;12.10;;;6.97;;
6434;SDS011;3250;42.694;23.278;2023-10-08T00:30:57;12.07;;;6.80;;
6434;SDS011;3250;42.694;23.278;2023-10-08T00:33:30;17.97;;;6.87;;
6434;SDS011;3250;42.694;23.278;2023-10-08T00:35:56;14.67;;;6.20;;
6434;SDS011;3250;42.694;23.278;2023-10-08T00:38:21;10.33;;;5.27;;
6434;SDS011;3250;42.694;23.278;2023-10-08T00:40:47;11.03;;;5.27;;
6434;SDS011;3250;42.694;23.278;2023-10-08T00:43:31;9.67;;;5.23;;
6434;SDS011;3250;42.694;23.278;2023-10-08T00:46:03;7.77;;;3.73;;
6434;SDS011;3250;42.694;23.278;2023-10-08T00:48:42;6.13;;;3.30;;
6434;SDS011;3250;42.694;23.278;2023-10-08T00:51:09;6.60;;;3.77;;
6434;SDS011;3250;42.694;23.278;2023-10-08T00:54:02;10.70;;;4.53;;
6434;SDS011;3250;42.694;23.278;2023-10-08T00:56:32;8.50;;;4.10;;
6434;SDS011;3250;42.694;23.278;2023-10-08T00:59:17;7.93;;;3.40;;
6434;SDS011;3250;42.694;23.278;2023-10-08T01:01:46;8.57;;;4.20;;
6434;SDS011;3250;42.694;23.278;2023-10-08T01:04:31;7.20;;;3.43;;
6434;SDS011;3250;42.694;23.278;2023-10-08T01:06:59;6.77;;;3.70;;
6434;SDS011;3250;42.694;23.278;2023-10-08T01:09:35;8.37;;;4.30;;
6434;SDS011;3250;42.694;23.278;2023-10-08T01:14:48;11.80;;;4.67;;
6434;SDS011;3250;42.694;23.278;2023-10-08T01:17:15;7.50;;;3.73;;
6434;SDS011;3250;42.694;23.278;2023-10-08T01:19:43;4.83;;;3.03;;
6434;SDS011;3250;42.694;23.278;2023-10-08T01:22:11;7.47;;;3.80;;
6434;SDS011;3250;42.694;23.278;2023-10-08T01:24:46;15.43;;;4.03;;
6434;SDS011;3250;42.694;23.278;2023-10-08T01:27:14;9.93;;;3.23;;
6434;SDS011;3250;42.694;23.278;2023-10-08T01:29:46;7.80;;;3.63;;
6434;SDS011;3250;42.694;23.278;2023-10-08T01:32:12;7.43;;;3.60;;
6434;SDS011;3250;42.694;23.278;2023-10-08T01:34:41;7.43;;;3.63;;
6434;SDS011;3250;42.694;23.278;2023-10-08T01:37:10;8.75;;;4.10;;
6434;SDS011;3250;42.694;23.278;2023-10-08T01:39:38;9.40;;;3.63;;
6434;SDS011;3250;42.694;23.278;2023-10-08T01:42:10;5.70;;;2.93;;
6434;SDS011;3250;42.694;23.278;2023-10-08T01:44:43;9.00;;;3.43;;
6434;SDS011;3250;42.694;23.278;2023-10-08T01:47:13;8.30;;;4.47;;
6434;SDS011;3250;42.694;23.278;2023-10-08T01:49:42;6.27;;;3.40;;
6434;SDS011;3250;42.694;23.278;2023-10-08T01:52:12;5.57;;;3.47;;
6434;SDS011;3250;42.694;23.278;2023-10-08T01:54:47;6.63;;;3.40;;
6434;SDS011;3250;42.694;23.278;2023-10-08T01:57:13;7.47;;;3.37;;
6434;SDS011;3250;42.694;23.278;2023-10-08T01:59:39;7.03;;;3.53;;
6434;SDS011;3250;42.694;23.278;2023-10-08T02:02:06;6.07;;;3.50;;
6434;SDS011;3250;42.694;23.278;2023-10-08T02:04:32;7.43;;;4.17;;
6434;SDS011;3250;42.694;23.278;2023-10-08T02:07:00;6.93;;;4.27;;
6434;SDS011;3250;42.694;23.278;2023-10-08T02:09:26;7.03;;;3.67;;
6434;SDS011;3250;42.694;23.278;2023-10-08T02:11:52;12.43;;;4.40;;
6434;SDS011;3250;42.694;23.278;2023-10-08T02:14:22;14.50;;;4.57;;
6434;SDS011;3250;42.694;23.278;2023-10-08T02:16:48;12.02;;;4.38;;
6434;SDS011;3250;42.694;23.278;2023-10-08T02:19:14;8.30;;;4.07;;
6434;SDS011;3250;42.694;23.278;2023-10-08T02:21:43;13.17;;;4.40;;
6434;SDS011;3250;42.694;23.278;2023-10-08T02:24:11;10.00;;;4.27;;
6434;SDS011;3250;42.694;23.278;2023-10-08T02:26:37;11.40;;;4.17;;
6434;SDS011;3250;42.694;23.278;2023-10-08T02:29:03;23.63;;;4.80;;
6434;SDS011;3250;42.694;23.278;2023-10-08T02:31:36;12.77;;;5.53;;
6434;SDS011;3250;42.694;23.278;2023-10-08T02:34:03;11.07;;;4.17;;
6434;SDS011;3250;42.694;23.278;2023-10-08T02:36:29;8.57;;;4.03;;
6434;SDS011;3250;42.694;23.278;2023-10-08T02:38:55;11.43;;;4.43;;
6434;SDS011;3250;42.694;23.278;2023-10-08T02:41:21;10.83;;;5.40;;
6434;SDS011;3250;42.694;23.278;2023-10-08T02:43:49;10.93;;;4.67;;
6434;SDS011;3250;42.694;23.278;2023-10-08T02:46:15;13.77;;;3.70;;
6434;SDS011;3250;42.694;23.278;2023-10-08T02:48:41;11.37;;;6.47;;
6434;SDS011;3250;42.694;23.278;2023-10-08T02:51:11;12.87;;;5.83;;
6434;SDS011;3250;42.694;23.278;2023-10-08T02:53:40;14.33;;;5.50;;
6434;SDS011;3250;42.694;23.278;2023-10-08T02:56:09;14.77;;;5.37;;
6434;SDS011;3250;42.694;23.278;2023-10-08T02:58:41;13.63;;;5.82;;
6434;SDS011;3250;42.694;23.278;2023-10-08T03:01:08;9.60;;;4.70;;
6434;SDS011;3250;42.694;23.278;2023-10-08T03:03:40;9.00;;;4.73;;
6434;SDS011;3250;42.694;23.278;2023-10-08T03:06:11;13.13;;;5.27;;
6434;SDS011;3250;42.694;23.278;2023-10-08T03:08:39;8.50;;;4.47;;
6434;SDS011;3250;42.694;23.278;2023-10-08T03:11:09;9.13;;;4.37;;
6434;SDS011;3250;42.694;23.278;2023-10-08T03:13:44;14.17;;;5.33;;
6434;SDS011;3250;42.694;23.278;2023-10-08T03:16:16;9.88;;;4.80;;
6434;SDS011;3250;42.694;23.278;2023-10-08T03:18:46;6.97;;;4.23;;
6434;SDS011;3250;42.694;23.278;2023-10-08T03:21:15;20.73;;;5.33;;
6434;SDS011;3250;42.694;23.278;2023-10-08T03:23:58;13.97;;;4.40;;
6434;SDS011;3250;42.694;23.278;2023-10-08T03:26:23;8.17;;;4.50;;
6434;SDS011;3250;42.694;23.278;2023-10-08T03:29:05;12.10;;;5.10;;
6434;SDS011;3250;42.694;23.278;2023-10-08T03:31:33;7.70;;;4.60;;
6434;SDS011;3250;42.694;23.278;2023-10-08T03:34:14;8.50;;;4.10;;
6434;SDS011;3250;42.694;23.278;2023-10-08T03:36:43;7.43;;;3.97;;
6434;SDS011;3250;42.694;23.278;2023-10-08T03:39:15;7.43;;;4.03;;
6434;SDS011;3250;42.694;23.278;2023-10-08T03:41:45;9.37;;;3.93;;
6434;SDS011;3250;42.694;23.278;2023-10-08T03:44:23;8.83;;;4.47;;
6434;SDS011;3250;42.694;23.278;2023-10-08T03:46:49;8.40;;;4.40;;
6434;SDS011;3250;42.694;23.278;2023-10-08T03:49:17;8.43;;;5.33;;
6434;SDS011;3250;42.694;23.278;2023-10-08T03:51:45;9.23;;;5.00;;
6434;SDS011;3250;42.694;23.278;2023-10-08T03:54:11;8.70;;;5.13;;
6434;SDS011;3250;42.694;23.278;2023-10-08T03:56:39;9.87;;;6.00;;
6434;SDS011;3250;42.694;23.278;2023-10-08T03:59:10;9.53;;;5.00;;
6434;SDS011;3250;42.694;23.278;2023-10-08T04:01:59;11.57;;;4.50;;
6434;SDS011;3250;42.694;23.278;2023-10-08T04:04:34;12.73;;;5.27;;
6434;SDS011;3250;42.694;23.278;2023-10-08T04:07:23;12.50;;;5.70;;
6434;SDS011;3250;42.694;23.278;2023-10-08T04:10:10;11.57;;;5.20;;
6434;SDS011;3250;42.694;23.278;2023-10-08T04:12:36;8.20;;;5.17;;
6434;SDS011;3250;42.694;23.278;2023-10-08T04:15:08;17.83;;;6.37;;
6434;SDS011;3250;42.694;23.278;2023-10-08T04:17:37;11.70;;;5.87;;
6434;SDS011;3250;42.694;23.278;2023-10-08T04:20:10;16.73;;;5.97;;
6434;SDS011;3250;42.694;23.278;2023-10-08T04:22:58;12.67;;;6.07;;
6434;SDS011;3250;42.694;23.278;2023-10-08T04:25:28;12.80;;;6.10;;
6434;SDS011;3250;42.694;23.278;2023-10-08T04:27:58;12.90;;;6.43;;
6434;SDS011;3250;42.694;23.278;2023-10-08T04:30:43;13.37;;;5.60;;
6434;SDS011;3250;42.694;23.278;2023-10-08T04:33:12;13.03;;;6.27;;
6434;SDS011;3250;42.694;23.278;2023-10-08T04:35:39;16.73;;;5.77;;
6434;SDS011;3250;42.694;23.278;2023-10-08T04:38:13;17.70;;;6.80;;
6434;SDS011;3250;42.694;23.278;2023-10-08T04:40:42;22.43;;;9.00;;
6434;SDS011;3250;42.694;23.278;2023-10-08T04:43:23;37.20;;;7.97;;
6434;SDS011;3250;42.694;23.278;2023-10-08T04:45:56;24.27;;;7.63;;
6434;SDS011;3250;42.694;23.278;2023-10-08T04:48:24;19.03;;;8.13;;
6434;SDS011;3250;42.694;23.278;2023-10-08T04:50:54;18.83;;;7.10;;
6434;SDS011;3250;42.694;23.278;2023-10-08T04:53:24;17.53;;;8.70;;
6434;SDS011;3250;42.694;23.278;2023-10-08T04:55:57;12.80;;;6.17;;
6434;SDS011;3250;42.694;23.278;2023-10-08T04:58:38;10.37;;;5.27;;
6434;SDS011;3250;42.694;23.278;2023-10-08T05:01:07;20.17;;;5.23;;
6434;SDS011;3250;42.694;23.278;2023-10-08T05:03:46;12.50;;;6.23;;
6434;SDS011;3250;42.694;23.278;2023-10-08T05:06:26;21.30;;;6.37;;
6434;SDS011;3250;42.694;23.278;2023-10-08T05:09:05;15.93;;;5.07;;
6434;SDS011;3250;42.694;23.278;2023-10-08T05:11:37;13.70;;;4.77;;
6434;SDS011;3250;42.694;23.278;2023-10-08T05:14:15;9.73;;;5.50;;
6434;SDS011;3250;42.694;23.278;2023-10-08T05:16:54;10.97;;;4.87;;
6434;SDS011;3250;42.694;23.278;2023-10-08T05:19:40;23.87;;;7.20;;
6434;SDS011;3250;42.694;23.278;2023-10-08T05:22:09;16.87;;;6.27;;
6434;SDS011;3250;42.694;23.278;2023-10-08T05:25:03;18.53;;;6.07;;
6434;SDS011;3250;42.694;23.278;2023-10-08T05:27:32;10.73;;;4.77;;
6434;SDS011;3250;42.694;23.278;2023-10-08T05:32:42;31.08;;;8.50;;
6434;SDS011;3250;42.694;23.278;2023-10-08T05:35:26;17.92;;;6.93;;
6434;SDS011;3250;42.694;23.278;2023-10-08T05:38:10;13.73;;;5.57;;
6434;SDS011;3250;42.694;23.278;2023-10-08T05:41:03;14.20;;;5.40;;
6434;SDS011;3250;42.694;23.278;2023-10-08T05:43:32;12.35;;;5.78;;
6434;SDS011;3250;42.694;23.278;2023-10-08T05:46:06;11.40;;;5.40;;
6434;SDS011;3250;42.694;23.278;2023-10-08T05:49:01;11.75;;;5.32;;
6434;SDS011;3250;42.694;23.278;2023-10-08T05:51:39;8.73;;;5.13;;
6434;SDS011;3250;42.694;23.278;2023-10-08T05:56:52;16.10;;;6.00;;
6434;SDS011;3250;42.694;23.278;2023-10-08T05:59:48;15.70;;;4.80;;
6434;SDS011;3250;42.694;23.278;2023-10-08T06:02:28;9.95;;;5.47;;
6434;SDS011;3250;42.694;23.278;2023-10-08T06:04:59;9.88;;;4.68;;
6434;SDS011;3250;42.694;23.278;2023-10-08T06:07:37;9.20;;;4.70;;
6434;SDS011;3250;42.694;23.278;2023-10-08T06:10:21;11.23;;;4.85;;
6434;SDS011;3250;42.694;23.278;2023-10-08T06:15:41;11.82;;;6.05;;
6434;SDS011;3250;42.694;23.278;2023-10-08T06:18:17;11.55;;;5.35;;
6434;SDS011;3250;42.694;23.278;2023-10-08T06:20:44;11.45;;;6.22;;
6434;SDS011;3250;42.694;23.278;2023-10-08T06:23:13;16.55;;;5.82;;
6434;SDS011;3250;42.694;23.278;2023-10-08T06:25:48;16.63;;;6.15;;
6434;SDS011;3250;42.694;23.278;2023-10-08T06:28:19;18.45;;;6.05;;
6434;SDS011;3250;42.694;23.278;2023-10-08T06:30:45;10.60;;;6.05;;
6434;SDS011;3250;42.694;23.278;2023-10-08T06:33:11;10.27;;;4.82;;
6434;SDS011;3250;42.694;23.278;2023-10-08T06:35:38;8.02;;;5.60;;
6434;SDS011;3250;42.694;23.278;2023-10-08T06:38:09;8.55;;;4.60;;
6434;SDS011;3250;42.694;23.278;2023-10-08T06:40:35;10.57;;;5.20;;
6434;SDS011;3250;42.694;23.278;2023-10-08T06:43:01;7.45;;;4.30;;
6434;SDS011;3250;42.694;23.278;2023-10-08T06:45:45;12.65;;;6.75;;
6434;SDS011;3250;42.694;23.278;2023-10-08T06:48:11;10.80;;;5.65;;
6434;SDS011;3250;42.694;23.278;2023-10-08T06:50:45;9.60;;;4.93;;
6434;SDS011;3250;42.694;23.278;2023-10-08T06:53:14;7.45;;;4.55;;
6434;SDS011;3250;42.694;23.278;2023-10-08T06:55:45;9.13;;;4.88;;
6434;SDS011;3250;42.694;23.278;2023-10-08T06:58:13;14.18;;;4.85;;
6434;SDS011;3250;42.694;23.278;2023-10-08T07:00:39;11.32;;;4.28;;
6434;SDS011;3250;42.694;23.278;2023-10-08T07:03:11;15.10;;;5.50;;
6434;SDS011;3250;42.694;23.278;2023-10-08T07:05:41;10.98;;;5.05;;
6434;SDS011;3250;42.694;23.278;2023-10-08T07:08:09;12.82;;;5.03;;
6434;SDS011;3250;42.694;23.278;2023-10-08T07:10:38;9.07;;;4.85;;
6434;SDS011;3250;42.694;23.278;2023-10-08T07:13:06;13.30;;;4.90;;
6434;SDS011;3250;42.694;23.278;2023-10-08T07:15:33;10.98;;;4.88;;
6434;SDS011;3250;42.694;23.278;2023-10-08T07:18:05;16.02;;;4.65;;
6434;SDS011;3250;42.694;23.278;2023-10-08T07:20:44;10.25;;;4.50;;
6434;SDS011;3250;42.694;23.278;2023-10-08T07:23:11;11.43;;;4.65;;
6434;SDS011;3250;42.694;23.278;2023-10-08T07:25:58;10.43;;;4.90;;
6434;SDS011;3250;42.694;23.278;2023-10-08T07:28:36;8.32;;;4.45;;
6434;SDS011;3250;42.694;23.278;2023-10-08T07:31:04;15.48;;;4.05;;
6434;SDS011;3250;42.694;23.278;2023-10-08T07:33:30;8.00;;;4.95;;
6434;SDS011;3250;42.694;23.278;2023-10-08T07:36:01;6.45;;;4.50;;
6434;SDS011;3250;42.694;23.278;2023-10-08T07:38:37;7.95;;;3.60;;
6434;SDS011;3250;42.694;23.278;2023-10-08T07:41:09;8.10;;;3.38;;
6434;SDS011;3250;42.694;23.278;2023-10-08T07:43:38;5.90;;;3.00;;
6434;SDS011;3250;42.694;23.278;2023-10-08T07:46:04;11.07;;;3.58;;
6434;SDS011;3250;42.694;23.278;2023-10-08T07:48:30;4.75;;;2.80;;
6434;SDS011;3250;42.694;23.278;2023-10-08T07:50:56;25.75;;;3.80;;
6434;SDS011;3250;42.694;23.278;2023-10-08T07:53:22;11.30;;;3.97;;
6434;SDS011;3250;42.694;23.278;2023-10-08T07:55:51;7.35;;;2.97;;
6434;SDS011;3250;42.694;23.278;2023-10-08T07:58:17;5.13;;;3.40;;
6434;SDS011;3250;42.694;23.278;2023-10-08T08:00:43;8.45;;;3.20;;
6434;SDS011;3250;42.694;23.278;2023-10-08T08:03:20;9.18;;;3.20;;
6434;SDS011;3250;42.694;23.278;2023-10-08T08:05:46;14.82;;;3.95;;
6434;SDS011;3250;42.694;23.278;2023-10-08T08:08:13;7.30;;;3.28;;
6434;SDS011;3250;42.694;23.278;2023-10-08T08:10:43;6.50;;;3.35;;
6434;SDS011;3250;42.694;23.278;2023-10-08T08:13:09;4.53;;;2.53;;
6434;SDS011;3250;42.694;23.278;2023-10-08T08:15:34;6.53;;;2.63;;
6434;SDS011;3250;42.694;23.278;2023-10-08T08:18:06;8.07;;;3.50;;
6434;SDS011;3250;42.694;23.278;2023-10-08T08:20:34;7.63;;;3.05;;
6434;SDS011;3250;42.694;23.278;2023-10-08T08:23:04;4.88;;;2.97;;
6434;SDS011;3250;42.694;23.278;2023-10-08T08:25:40;9.93;;;2.92;;
6434;SDS011;3250;42.694;23.278;2023-10-08T08:28:31;5.88;;;3.55;;
6434;SDS011;3250;42.694;23.278;2023-10-08T08:31:01;8.23;;;3.10;;
6434;SDS011;3250;42.694;23.278;2023-10-08T08:33:29;8.13;;;3.05;;
6434;SDS011;3250;42.694;23.278;2023-10-08T08:36:16;7.55;;;3.40;;
6434;SDS011;3250;42.694;23.278;2023-10-08T08:38:41;18.00;;;4.43;;
6434;SDS011;3250;42.694;23.278;2023-10-08T08:41:07;26.75;;;4.82;;
6434;SDS011;3250;42.694;23.278;2023-10-08T08:43:36;11.20;;;3.50;;
6434;SDS011;3250;42.694;23.278;2023-10-08T08:46:04;17.25;;;4.78;;
6434;SDS011;3250;42.694;23.278;2023-10-08T08:48:32;8.65;;;3.65;;
6434;SDS011;3250;42.694;23.278;2023-10-08T08:50:59;12.73;;;4.18;;
6434;SDS011;3250;42.694;23.278;2023-10-08T08:53:25;8.00;;;3.15;;
6434;SDS011;3250;42.694;23.278;2023-10-08T08:55:51;9.50;;;3.80;;
6434;SDS011;3250;42.694;23.278;2023-10-08T08:58:19;6.28;;;3.05;;
6434;SDS011;3250;42.694;23.278;2023-10-08T09:00:47;5.70;;;3.33;;
6434;SDS011;3250;42.694;23.278;2023-10-08T09:03:12;13.45;;;3.58;;
6434;SDS011;3250;42.694;23.278;2023-10-08T09:05:38;12.48;;;3.50;;
6434;SDS011;3250;42.694;23.278;2023-10-08T09:08:06;6.25;;;3.50;;
6434;SDS011;3250;42.694;23.278;2023-10-08T09:10:33;12.43;;;3.95;;
6434;SDS011;3250;42.694;23.278;2023-10-08T09:13:03;6.82;;;3.40;;
6434;SDS011;3250;42.694;23.278;2023-10-08T09:15:30;8.93;;;3.53;;
6434;SDS011;3250;42.694;23.278;2023-10-08T09:17:57;9.80;;;3.15;;
6434;SDS011;3250;42.694;23.278;2023-10-08T09:20:25;6.53;;;3.17;;
6434;SDS011;3250;42.694;23.278;2023-10-08T09:23:05;14.07;;;3.58;;
6434;SDS011;3250;42.694;23.278;2023-10-08T09:25:42;21.70;;;4.68;;
6434;SDS011;3250;42.694;23.278;2023-10-08T09:28:09;19.13;;;4.40;;
6434;SDS011;3250;42.694;23.278;2023-10-08T09:30:38;7.47;;;3.33;;
6434;SDS011;3250;42.694;23.278;2023-10-08T09:33:08;13.05;;;3.50;;
6434;SDS011;3250;42.694;23.278;2023-10-08T09:35:37;15.45;;;3.67;;
6434;SDS011;3250;42.694;23.278;2023-10-08T09:38:03;5.40;;;2.97;;
6434;SDS011;3250;42.694;23.278;2023-10-08T09:40:30;11.80;;;3.20;;
6434;SDS011;3250;42.694;23.278;2023-10-08T09:42:56;16.63;;;3.85;;
6434;SDS011;3250;42.694;23.278;2023-10-08T09:45:22;10.45;;;3.08;;
6434;SDS011;3250;42.694;23.278;2023-10-08T09:47:54;7.50;;;2.55;;
6434;SDS011;3250;42.694;23.278;2023-10-08T09:50:21;11.18;;;3.65;;
6434;SDS011;3250;42.694;23.278;2023-10-08T09:52:59;6.03;;;3.10;;
6434;SDS011;3250;42.694;23.278;2023-10-08T09:55:31;7.10;;;3.60;;
6434;SDS011;3250;42.694;23.278;2023-10-08T09:57:56;7.40;;;3.08;;
6434;SDS011;3250;42.694;23.278;2023-10-08T10:00:22;6.13;;;3.42;;
6434;SDS011;3250;42.694;23.278;2023-10-08T10:02:56;19.02;;;3.83;;
6434;SDS011;3250;42.694;23.278;2023-10-08T10:05:29;10.68;;;4.10;;
6434;SDS011;3250;42.694;23.278;2023-10-08T10:07:57;13.77;;;4.03;;
6434;SDS011;3250;42.694;23.278;2023-10-08T10:10:26;8.30;;;3.53;;
6434;SDS011;3250;42.694;23.278;2023-10-08T10:13:00;8.05;;;3.75;;
6434;SDS011;3250;42.694;23.278;2023-10-08T10:15:27;11.32;;;3.50;;
6434;SDS011;3250;42.694;23.278;2023-10-08T10:18:07;4.57;;;2.72;;
6434;SDS011;3250;42.694;23.278;2023-10-08T10:20:39;7.10;;;2.70;;
6434;SDS011;3250;42.694;23.278;2023-10-08T10:31:38;4.97;;;2.67;;
6434;SDS011;3250;42.694;23.278;2023-10-08T10:34:09;10.02;;;2.78;;
6434;SDS011;3250;42.694;23.278;2023-10-08T10:36:35;6.22;;;2.40;;
6434;SDS011;3250;42.694;23.278;2023-10-08T10:39:01;11.48;;;2.90;;
6434;SDS011;3250;42.694;23.278;2023-10-08T10:41:40;7.03;;;2.70;;
6434;SDS011;3250;42.694;23.278;2023-10-08T10:44:16;3.95;;;2.33;;
6434;SDS011;3250;42.694;23.278;2023-10-08T10:46:42;9.95;;;2.92;;
6434;SDS011;3250;42.694;23.278;2023-10-08T10:49:08;4.70;;;2.90;;
6434;SDS011;3250;42.694;23.278;2023-10-08T10:51:49;8.02;;;2.78;;
6434;SDS011;3250;42.694;23.278;2023-10-08T10:54:22;8.57;;;3.47;;
6434;SDS011;3250;42.694;23.278;2023-10-08T10:56:49;16.00;;;4.50;;
6434;SDS011;3250;42.694;23.278;2023-10-08T10:59:28;26.60;;;4.20;;
6434;SDS011;3250;42.694;23.278;2023-10-08T11:02:02;9.07;;;3.28;;
6434;SDS011;3250;42.694;23.278;2023-10-08T11:04:46;11.75;;;3.20;;
6434;SDS011;3250;42.694;23.278;2023-10-08T11:07:16;4.50;;;2.38;;
6434;SDS011;3250;42.694;23.278;2023-10-08T11:09:48;11.45;;;2.72;;
6434;SDS011;3250;42.694;23.278;2023-10-08T11:12:20;14.40;;;3.40;;
6434;SDS011;3250;42.694;23.278;2023-10-08T11:14:48;17.48;;;3.20;;
6434;SDS011;3250;42.694;23.278;2023-10-08T11:17:17;9.68;;;2.88;;
6434;SDS011;3250;42.694;23.278;2023-10-08T11:19:47;12.10;;;2.88;;
6434;SDS011;3250;42.694;23.278;2023-10-08T11:22:13;24.52;;;3.35;;
6434;SDS011;3250;42.694;23.278;2023-10-08T11:24:43;11.05;;;2.80;;
6434;SDS011;3250;42.694;23.278;2023-10-08T11:27:19;20.77;;;3.38;;
6434;SDS011;3250;42.694;23.278;2023-10-08T11:29:54;14.73;;;3.65;;
6434;SDS011;3250;42.694;23.278;2023-10-08T11:32:23;20.40;;;3.95;;
6434;SDS011;3250;42.694;23.278;2023-10-08T11:34:59;10.20;;;2.92;;
6434;SDS011;3250;42.694;23.278;2023-10-08T11:37:31;14.38;;;3.05;;
6434;SDS011;3250;42.694;23.278;2023-10-08T11:40:01;5.00;;;2.25;;
6434;SDS011;3250;42.694;23.278;2023-10-08T11:42:42;14.15;;;2.83;;
6434;SDS011;3250;42.694;23.278;2023-10-08T11:45:09;17.33;;;3.72;;
6434;SDS011;3250;42.694;23.278;2023-10-08T11:47:44;21.23;;;3.42;;
6434;SDS011;3250;42.694;23.278;2023-10-08T11:50:13;10.25;;;3.38;;
6434;SDS011;3250;42.694;23.278;2023-10-08T11:52:43;14.68;;;3.58;;
6434;SDS011;3250;42.694;23.278;2023-10-08T11:55:09;7.65;;;2.70;;
6434;SDS011;3250;42.694;23.278;2023-10-08T11:57:35;17.10;;;3.53;;
6434;SDS011;3250;42.694;23.278;2023-10-08T12:00:04;17.27;;;3.67;;
6434;SDS011;3250;42.694;23.278;2023-10-08T12:02:43;9.98;;;2.63;;
6434;SDS011;3250;42.694;23.278;2023-10-08T12:05:13;12.68;;;3.05;;
6434;SDS011;3250;42.694;23.278;2023-10-08T12:07:47;21.65;;;3.45;;
6434;SDS011;3250;42.694;23.278;2023-10-08T12:10:13;17.00;;;3.03;;
6434;SDS011;3250;42.694;23.278;2023-10-08T12:12:42;13.70;;;3.22;;
6434;SDS011;3250;42.694;23.278;2023-10-08T12:15:10;7.22;;;2.58;;
6434;SDS011;3250;42.694;23.278;2023-10-08T12:17:37;8.27;;;2.50;;
6434;SDS011;3250;42.694;23.278;2023-10-08T12:20:05;8.15;;;3.33;;
6434;SDS011;3250;42.694;23.278;2023-10-08T12:22:48;17.60;;;3.47;;
6434;SDS011;3250;42.694;23.278;2023-10-08T12:25:19;23.75;;;3.85;;
6434;SDS011;3250;42.694;23.278;2023-10-08T12:27:45;14.68;;;4.55;;
6434;SDS011;3250;42.694;23.278;2023-10-08T12:30:10;14.85;;;3.78;;
6434;SDS011;3250;42.694;23.278;2023-10-08T12:32:36;15.18;;;3.70;;
6434;SDS011;3250;42.694;23.278;2023-10-08T12:35:05;8.85;;;2.75;;
6434;SDS011;3250;42.694;23.278;2023-10-08T12:37:37;15.93;;;3.30;;
6434;SDS011;3250;42.694;23.278;2023-10-08T12:40:07;11.88;;;2.72;;
6434;SDS011;3250;42.694;23.278;2023-10-08T12:42:53;9.00;;;2.85;;
6434;SDS011;3250;42.694;23.278;2023-10-08T12:45:19;8.32;;;2.53;;
6434;SDS011;3250;42.694;23.278;2023-10-08T12:47:49;10.43;;;2.85;;
6434;SDS011;3250;42.694;23.278;2023-10-08T12:50:17;10.45;;;3.03;;
6434;SDS011;3250;42.694;23.278;2023-10-08T12:52:48;68.07;;;6.40;;
6434;SDS011;3250;42.694;23.278;2023-10-08T21:33:47;8.27;;;2.65;;
6434;SDS011;3250;42.694;23.278;2023-10-08T21:36:14;11.40;;;2.72;;
6434;SDS011;3250;42.694;23.278;2023-10-08T21:38:42;9.63;;;3.17;;
6434;SDS011;3250;42.694;23.278;2023-10-08T21:41:10;9.67;;;3.13;;
6434;SDS011;3250;42.694;23.278;2023-10-08T21:43:36;9.82;;;2.85;;
6434;SDS011;3250;42.694;23.278;2023-10-08T21:46:08;11.23;;;2.92;;
6434;SDS011;3250;42.694;23.278;2023-10-08T21:48:34;9.52;;;2.58;;
6434;SDS011;3250;42.694;23.278;2023-10-08T21:51:00;8.87;;;2.70;;
6434;SDS011;3250;42.694;23.278;2023-10-08T21:53:26;11.60;;;2.33;;
6434;SDS011;3250;42.694;23.278;2023-10-08T21:55:51;12.45;;;2.97;;
6434;SDS011;3250;42.694;23.278;2023-10-08T21:58:17;12.33;;;3.07;;
6434;SDS011;3250;42.694;23.278;2023-10-08T22:00:43;12.65;;;3.13;;
6434;SDS011;3250;42.694;23.278;2023-10-08T22:03:11;10.73;;;2.50;;
6434;SDS011;3250;42.694;23.278;2023-10-08T22:05:40;10.90;;;3.00;;
6434;SDS011;3250;42.694;23.278;2023-10-08T22:08:09;9.07;;;3.40;;
6434;SDS011;3250;42.694;23.278;2023-10-08T22:10:39;10.27;;;2.88;;
6434;SDS011;3250;42.694;23.278;2023-10-08T22:13:07;10.93;;;2.97;;
6434;SDS011;3250;42.694;23.278;2023-10-08T22:15:34;8.23;;;2.85;;
6434;SDS011;3250;42.694;23.278;2023-10-08T22:18:09;13.73;;;2.78;;
6434;SDS011;3250;42.694;23.278;2023-10-08T22:20:35;10.93;;;3.15;;
6434;SDS011;3250;42.694;23.278;2023-10-08T22:25:33;11.93;;;2.60;;
6434;SDS011;3250;42.694;23.278;2023-10-08T22:28:01;10.07;;;2.75;;
6434;SDS011;3250;42.694;23.278;2023-10-08T22:30:36;9.20;;;2.80;;
6434;SDS011;3250;42.694;23.278;2023-10-08T22:33:08;13.75;;;2.92;;
6434;SDS011;3250;42.694;23.278;2023-10-08T22:35:35;11.50;;;2.83;;
6434;SDS011;3250;42.694;23.278;2023-10-08T22:38:01;7.05;;;2.58;;
6434;SDS011;3250;42.694;23.278;2023-10-08T22:40:27;8.93;;;2.63;;
6434;SDS011;3250;42.694;23.278;2023-10-08T22:43:12;8.02;;;2.67;;
6434;SDS011;3250;42.694;23.278;2023-10-08T22:45:40;11.65;;;2.90;;
6434;SDS011;3250;42.694;23.278;2023-10-08T22:48:18;12.45;;;2.80;;
6434;SDS011;3250;42.694;23.278;2023-10-08T22:50:56;9.27;;;3.20;;
6434;SDS011;3250;42.694;23.278;2023-10-08T22:53:22;14.27;;;2.53;;
6434;SDS011;3250;42.694;23.278;2023-10-08T22:55:47;8.43;;;2.53;;
6434;SDS011;3250;42.694;23.278;2023-10-08T22:58:13;11.00;;;3.33;;
6434;SDS011;3250;42.694;23.278;2023-10-08T23:00:42;10.98;;;2.28;;
6434;SDS011;3250;42.694;23.278;2023-10-08T23:03:13;13.70;;;2.30;;
6434;SDS011;3250;42.694;23.278;2023-10-08T23:05:46;6.32;;;2.40;;
6434;SDS011;3250;42.694;23.278;2023-10-08T23:08:21;9.85;;;2.92;;
6434;SDS011;3250;42.694;23.278;2023-10-08T23:10:47;11.70;;;2.63;;
6434;SDS011;3250;42.694;23.278;2023-10-08T23:13:15;9.70;;;2.57;;
6434;SDS011;3250;42.694;23.278;2023-10-08T23:15:41;10.13;;;3.03;;
6434;SDS011;3250;42.694;23.278;2023-10-08T23:18:08;8.88;;;2.75;;
6434;SDS011;3250;42.694;23.278;2023-10-08T23:20:34;6.45;;;2.25;;
6434;SDS011;3250;42.694;23.278;2023-10-08T23:23:01;13.05;;;2.97;;
6434;SDS011;3250;42.694;23.278;2023-10-08T23:25:27;9.50;;;2.53;;
6434;SDS011;3250;42.694;23.278;2023-10-08T23:27:52;11.23;;;2.80;;
6434;SDS011;3250;42.694;23.278;2023-10-08T23:30:18;5.82;;;2.10;;
6434;SDS011;3250;42.694;23.278;2023-10-08T23:32:43;10.17;;;2.77;;
6434;SDS011;3250;42.694;23.278;2023-10-08T23:35:11;10.40;;;2.80;;
6434;SDS011;3250;42.694;23.278;2023-10-08T23:37:45;10.35;;;2.47;;
6434;SDS011;3250;42.694;23.278;2023-10-08T23:40:18;6.85;;;2.10;;
6434;SDS011;3250;42.694;23.278;2023-10-08T23:42:56;8.73;;;2.05;;
6434;SDS011;3250;42.694;23.278;2023-10-08T23:45:34;8.20;;;2.10;;
6434;SDS011;3250;42.694;23.278;2023-10-08T23:48:06;4.63;;;2.30;;
6434;SDS011;3250;42.694;23.278;2023-10-08T23:50:43;6.43;;;2.35;;
6434;SDS011;3250;42.694;23.278;2023-10-08T23:53:10;7.88;;;2.30;;
6434;SDS011;3250;42.694;23.278;2023-10-08T23:55:40;12.27;;;2.35;;
6434;SDS011;3250;42.694;23.278;2023-10-08T23:58:25;8.10;;;2.35;;
